Time;durP1;ratioP1;P1;durP2;ratioP2;P2;SDS_P1;SDS_P2;PMS_P1;PMS_P2;Temp;Humidity;BMP_temperature;BMP_pressure;BME280_temperature;BME280_humidity;BME280_pressure;Samples;Min_cycle;Max_cycle;Signal;HPM_P1;HPM_P2
2023/01/17 00:02:31;;;;;;;7.70;5.70;;;;;;;3.84;90.47;97990.67;107391;1254;80139;-54
2023/01/17 00:11:10;;;;;;;7.60;5.60;;;;;;;3.74;90.63;97975.71;107392;1254;88719;-53
2023/01/17 00:13:54;;;;;;;7.90;5.60;;;;;;;3.74;90.54;97972.10;107265;1255;94719;-53
2023/01/17 00:16:36;;;;;;;7.60;5.60;;;;;;;3.75;90.65;97973.34;107362;1254;80006;-56
2023/01/17 01:34:37;;;;;;;14.10;9.60;;;;;;;4.02;91.68;97866.77;107429;1254;97503;-54
2023/01/17 01:37:20;;;;;;;11.40;8.90;;;;;;;4.04;92.03;97866.34;107425;1254;87696;-55
2023/01/17 01:40:00;;;;;;;12.20;9.90;;;;;;;4.04;91.84;97865.03;107408;1258;95183;-53
2023/01/17 01:42:50;;;;;;;15.80;10.10;;;;;;;4.09;91.89;97858.09;107348;1254;80631;-53
2023/01/17 01:45:31;;;;;;;13.60;9.50;;;;;;;4.15;91.82;97851.31;107374;1254;83609;-55
2023/01/17 01:48:30;;;;;;;13.60;9.60;;;;;;;4.11;92.09;97837.84;107350;1254;98732;-53
2023/01/17 01:51:16;;;;;;;13.10;10.20;;;;;;;4.10;92.09;97827.95;107360;1258;88667;-55
2023/01/17 01:53:58;;;;;;;14.10;9.80;;;;;;;4.10;91.84;97825.23;107363;1254;94536;-55
2023/01/17 01:56:39;;;;;;;12.50;9.10;;;;;;;4.10;92.00;97820.21;107356;1254;80542;-53
2023/01/17 01:59:26;;;;;;;13.20;9.90;;;;;;;4.10;92.22;97816.57;107341;1254;81198;-53
2023/01/17 02:02:03;;;;;;;15.00;9.70;;;;;;;4.14;91.89;97811.08;107412;1258;97365;-54
2023/01/17 02:04:40;;;;;;;12.40;10.00;;;;;;;4.16;92.03;97810.45;107356;1254;88736;-54
2023/01/17 02:07:31;;;;;;;12.50;9.30;;;;;;;4.21;91.97;97806.98;107406;1254;92631;-55
2023/01/17 02:10:09;;;;;;;12.60;9.70;;;;;;;4.25;92.12;97803.44;107397;1254;81682;-55
2023/01/17 02:12:45;;;;;;;16.10;10.40;;;;;;;4.25;92.18;97808.38;107409;1254;79177;-54
2023/01/17 02:15:32;;;;;;;14.10;10.50;;;;;;;4.25;92.01;97803.38;107390;1254;99836;-52
2023/01/17 02:18:21;;;;;;;14.00;9.40;;;;;;;4.20;92.18;97805.46;107366;1254;89142;-52
2023/01/17 02:21:27;;;;;;;14.20;9.40;;;;;;;4.18;92.06;97804.82;107463;1254;93977;-55
2023/01/17 02:24:49;;;;;;;14.00;9.10;;;;;;;4.17;92.24;97801.48;107470;1254;81704;-54
2023/01/17 02:27:46;;;;;;;16.50;10.30;;;;;;;4.24;92.23;97799.16;107398;1254;82721;-54
2023/01/17 02:30:36;;;;;;;15.30;10.30;;;;;;;4.21;92.40;97790.38;107409;1254;99553;-55
2023/01/17 02:33:34;;;;;;;13.20;9.50;;;;;;;4.24;92.26;97784.13;107440;1255;88970;-54
2023/01/17 02:36:24;;;;;;;14.80;10.10;;;;;;;4.22;92.10;97782.69;107410;1254;95264;-56
2023/01/17 02:39:09;;;;;;;13.70;9.90;;;;;;;4.21;92.27;97777.64;107387;1254;81763;-56
2023/01/17 02:41:52;;;;;;;13.40;10.00;;;;;;;4.23;92.35;97776.80;107333;1258;83305;-54
2023/01/17 02:44:43;;;;;;;14.50;10.50;;;;;;;4.23;92.22;97778.73;107324;1254;99518;-54
2023/01/17 02:47:28;;;;;;;14.10;10.80;;;;;;;4.23;92.41;97776.86;107357;1254;88121;-52
2023/01/17 02:50:10;;;;;;;15.10;9.70;;;;;;;4.22;92.33;97781.99;107367;1254;95481;-55
2023/01/17 02:53:05;;;;;;;14.10;10.10;;;;;;;4.25;92.35;97781.64;107387;1254;81544;-54
2023/01/17 02:56:00;;;;;;;15.40;10.40;;;;;;;4.23;92.71;97778.94;107410;1254;81904;-53
2023/01/17 02:59:06;;;;;;;14.80;9.30;;;;;;;4.21;92.81;97778.30;107349;1254;99803;-51
2023/01/17 03:02:05;;;;;;;15.20;10.10;;;;;;;4.19;92.73;97779.66;107375;1254;89363;-53
2023/01/17 03:04:54;;;;;;;13.80;9.30;;;;;;;4.23;92.36;97766.82;107380;1254;94199;-53
2023/01/17 03:07:32;;;;;;;12.70;9.40;;;;;;;4.25;92.49;97768.29;107404;1254;81196;-53
2023/01/17 03:10:19;;;;;;;15.10;10.40;;;;;;;4.23;92.44;97766.36;107406;1254;82676;-54
2023/01/17 03:13:00;;;;;;;12.70;9.30;;;;;;;4.23;92.56;97765.34;107407;1254;98879;-55
2023/01/17 03:15:44;;;;;;;12.00;9.30;;;;;;;4.25;92.30;97768.86;107386;1254;89452;-52
2023/01/17 03:18:22;;;;;;;13.60;9.70;;;;;;;4.25;92.37;97765.65;107414;1254;94437;-52
2023/01/17 03:21:02;;;;;;;12.80;9.30;;;;;;;4.28;92.43;97765.44;107470;1254;80337;-56
2023/01/17 03:23:43;;;;;;;14.40;10.00;;;;;;;4.25;92.79;97767.45;107391;1254;82565;-56
2023/01/17 03:26:25;;;;;;;13.60;9.20;;;;;;;4.19;92.45;97760.70;107411;1254;100065;-55
2023/01/17 03:29:08;;;;;;;12.10;9.20;;;;;;;4.23;92.61;97760.96;107339;1254;88341;-53
2023/01/17 03:31:47;;;;;;;12.60;9.50;;;;;;;4.20;92.67;97760.49;107302;1258;95154;-53
2023/01/17 03:34:27;;;;;;;12.90;9.30;;;;;;;4.17;92.64;97756.98;107375;1255;81502;-52
2023/01/17 03:37:14;;;;;;;12.90;10.20;;;;;;;4.17;92.67;97752.04;107318;1254;81447;-55
2023/01/17 03:39:46;;;;;;;;;;;;;;;4.12;92.48;97754.90;107366;1258;98163;-52
2023/01/17 03:42:28;;;;;;;13.20;9.10;;;;;;;4.11;92.72;97754.88;107370;1254;86410;-51
2023/01/17 03:45:09;;;;;;;12.10;8.90;;;;;;;4.15;92.48;97749.76;107389;1258;92911;-55
2023/01/17 03:47:46;;;;;;;13.10;9.00;;;;;;;4.16;92.42;97750.48;107434;1254;79189;-56
2023/01/17 03:50:25;;;;;;;11.90;8.90;;;;;;;4.14;92.32;97752.84;107412;1254;82937;-52
2023/01/17 03:53:07;;;;;;;12.70;10.30;;;;;;;4.15;92.53;97750.66;107451;1254;98743;-53
2023/01/17 03:55:53;;;;;;;12.70;9.40;;;;;;;4.09;92.71;97754.75;107435;1254;89060;-52
2023/01/17 03:58:37;;;;;;;10.60;9.80;;;;;;;4.07;92.59;97754.71;107393;1254;93885;-54
2023/01/17 04:01:22;;;;;;;14.80;10.40;;;;;;;4.11;92.54;97751.71;107387;1254;81247;-56
2023/01/17 04:04:05;;;;;;;11.80;8.50;;;;;;;4.11;92.45;97745.80;107437;1255;81107;-55
2023/01/17 04:06:39;;;;;;;14.80;9.80;;;;;;;4.09;92.54;97744.48;107311;1255;98548;-54
2023/01/17 04:09:18;;;;;;;11.50;8.40;;;;;;;4.08;92.38;97751.48;107383;1254;89149;-55
2023/01/17 04:12:00;;;;;;;12.90;9.20;;;;;;;4.04;92.57;97756.95;107354;1254;95192;-53
2023/01/17 04:14:40;;;;;;;13.90;8.60;;;;;;;4.02;92.60;97753.52;107374;1254;81887;-53
2023/01/17 04:17:25;;;;;;;12.20;8.20;;;;;;;4.03;92.35;97752.44;107356;1254;81947;-53
2023/01/17 04:20:07;;;;;;;13.50;9.40;;;;;;;4.02;92.36;97744.94;107381;1254;98079;-56
2023/01/17 04:22:50;;;;;;;12.60;8.30;;;;;;;4.02;92.59;97749.08;107394;1254;88448;-55
2023/01/17 04:25:30;;;;;;;13.10;9.20;;;;;;;3.99;92.42;97747.86;107420;1254;96065;-55
2023/01/17 04:28:06;;;;;;;12.90;8.90;;;;;;;3.97;92.21;97745.15;107411;1254;81197;-54
2023/01/17 04:30:48;;;;;;;13.80;9.10;;;;;;;3.96;92.21;97749.02;107451;1254;80279;-53
2023/01/17 04:33:30;;;;;;;11.10;8.70;;;;;;;3.97;92.10;97749.63;107444;1254;98433;-53
2023/01/17 04:36:08;;;;;;;11.00;8.30;;;;;;;3.99;92.21;97750.02;107445;1254;88681;-53
2023/01/17 04:38:50;;;;;;;12.80;8.90;;;;;;;4.00;92.31;97753.33;107381;1254;94679;-52
2023/01/17 04:41:34;;;;;;;14.40;8.80;;;;;;;3.98;92.14;97751.71;107417;1254;79803;-51
2023/01/17 04:44:19;;;;;;;15.20;9.60;;;;;;;3.96;92.27;97758.43;107338;1254;82655;-50
2023/01/17 04:47:02;;;;;;;12.50;8.40;;;;;;;3.97;92.19;97766.27;107398;1254;98370;-51
2023/01/17 04:49:41;;;;;;;14.70;9.80;;;;;;;3.97;92.30;97767.23;107404;1254;88993;-53
2023/01/17 04:52:20;;;;;;;10.60;7.40;;;;;;;3.95;92.22;97761.61;107377;1254;95543;-53
2023/01/17 04:54:56;;;;;;;12.90;9.10;;;;;;;3.93;92.26;97759.98;107362;1254;81650;-54
2023/01/17 04:57:34;;;;;;;13.70;9.20;;;;;;;3.96;92.20;97770.61;107349;1254;80535;-53
2023/01/17 05:00:13;;;;;;;13.50;8.50;;;;;;;3.96;92.01;97773.27;107406;1254;98143;-52
2023/01/17 05:02:57;;;;;;;13.00;9.60;;;;;;;3.96;92.06;97772.80;107353;1254;87794;-52
2023/01/17 05:05:39;;;;;;;12.20;8.70;;;;;;;3.98;91.94;97775.14;107356;1254;94623;-54
2023/01/17 05:08:19;;;;;;;14.10;9.30;;;;;;;3.97;92.07;97774.33;107317;1254;81316;-54
2023/01/17 05:11:02;;;;;;;12.90;8.90;;;;;;;3.95;92.01;97773.44;107416;1254;81692;-53
2023/01/17 05:13:47;;;;;;;13.60;9.40;;;;;;;3.91;92.07;97771.97;107396;1254;99200;-54
2023/01/17 05:16:33;;;;;;;12.30;9.20;;;;;;;3.91;92.02;97780.15;107398;1254;88849;-56
2023/01/17 05:19:18;;;;;;;11.30;8.50;;;;;;;3.94;91.99;97774.84;107494;1254;94907;-56
2023/01/17 05:22:13;;;;;;;12.00;8.70;;;;;;;3.93;91.79;97775.58;107410;1258;81067;-52
2023/01/17 05:24:57;;;;;;;12.40;8.40;;;;;;;3.95;91.87;97779.77;107491;1254;82599;-54
2023/01/17 05:27:38;;;;;;;13.30;9.30;;;;;;;3.93;91.93;97787.64;107431;1254;98670;-54
2023/01/17 05:30:18;;;;;;;13.90;9.40;;;;;;;3.92;91.96;97791.65;107443;1254;89085;-56
2023/01/17 05:33:01;;;;;;;11.40;8.60;;;;;;;3.86;91.92;97787.52;107440;1254;95198;-56
2023/01/17 05:35:46;;;;;;;13.10;8.60;;;;;;;3.84;91.86;97789.83;107192;1254;321606;-55
2023/01/17 05:38:23;;;;;;;13.10;9.00;;;;;;;3.83;91.81;97793.52;107380;1254;82760;-56
2023/01/17 05:41:11;;;;;;;14.00;9.00;;;;;;;3.81;91.83;97790.24;107398;1254;99189;-53
2023/01/17 05:43:53;;;;;;;12.80;9.30;;;;;;;3.78;91.75;97785.20;107376;1254;89604;-52
2023/01/17 05:46:35;;;;;;;12.30;8.70;;;;;;;3.73;91.63;97788.95;107378;1254;94263;-53
2023/01/17 05:49:19;;;;;;;13.00;9.60;;;;;;;3.68;91.75;97788.35;107325;1254;79317;-53
2023/01/17 05:52:01;;;;;;;16.40;9.80;;;;;;;3.58;91.71;97792.19;107411;1257;80797;-56
2023/01/17 05:54:35;;;;;;;16.50;10.80;;;;;;;3.54;91.85;97799.10;107482;1254;99593;-52
2023/01/17 05:57:16;;;;;;;23.00;16.40;;;;;;;3.57;91.96;97803.38;107416;1254;87916;-53
2023/01/17 05:59:54;;;;;;;27.40;19.20;;;;;;;3.56;91.82;97802.84;107395;1254;93939;-53
2023/01/17 06:02:34;;;;;;;37.00;23.80;;;;;;;3.48;91.82;97804.16;107360;1254;80966;-54
2023/01/17 06:05:11;;;;;;;37.40;25.70;;;;;;;3.43;91.93;97804.94;107390;1254;82743;-53
2023/01/17 06:07:49;;;;;;;40.40;29.50;;;;;;;3.39;91.92;97813.94;107382;1254;99579;-54
2023/01/17 06:10:31;;;;;;;39.00;27.50;;;;;;;3.40;91.77;97810.48;107445;1254;88736;-55
2023/01/17 06:13:20;;;;;;;31.90;22.40;;;;;;;3.37;91.83;97806.11;107472;1254;93243;-55
2023/01/17 06:16:02;;;;;;;31.10;20.20;;;;;;;3.28;91.91;97802.91;107424;1254;82011;-54
2023/01/17 06:18:46;;;;;;;33.30;21.40;;;;;;;3.17;92.10;97807.80;107413;1254;80335;-56
2023/01/17 06:21:21;;;;;;;26.30;17.20;;;;;;;3.12;92.07;97800.70;107420;1254;97413;-54
2023/01/17 06:24:01;;;;;;;21.00;14.20;;;;;;;3.08;91.90;97802.27;107408;1254;89219;-54
2023/01/17 06:26:45;;;;;;;18.00;11.50;;;;;;;3.03;91.92;97800.45;107385;1254;94169;-53
2023/01/17 06:29:32;;;;;;;17.10;11.30;;;;;;;2.93;92.16;97801.43;107400;1254;81163;-52
2023/01/17 06:32:12;;;;;;;17.70;11.40;;;;;;;2.87;92.41;97801.15;107377;1254;81816;-55
2023/01/17 06:34:55;;;;;;;16.60;10.00;;;;;;;2.87;92.26;97800.81;107392;1254;99714;-55
2023/01/17 06:37:35;;;;;;;17.40;10.50;;;;;;;2.82;92.01;97801.03;107411;1254;88834;-56
2023/01/17 06:40:15;;;;;;;14.10;10.60;;;;;;;2.79;92.45;97804.25;107400;1254;95070;-55
2023/01/17 06:42:59;;;;;;;15.10;9.90;;;;;;;2.78;92.27;97811.69;107398;1254;81462;-55
2023/01/17 06:45:40;;;;;;;14.60;9.90;;;;;;;2.76;92.35;97822.92;107357;1254;82041;-55
2023/01/17 06:48:21;;;;;;;14.30;10.10;;;;;;;2.69;92.30;97836.83;107421;1254;99279;-56
2023/01/17 06:51:00;;;;;;;14.90;9.00;;;;;;;2.68;92.32;97833.11;107404;1254;88476;-58
2023/01/17 06:53:40;;;;;;;14.00;9.30;;;;;;;2.72;92.55;97835.70;107384;1254;94638;-54
2023/01/17 06:56:21;;;;;;;12.50;8.70;;;;;;;2.73;92.23;97843.16;107366;1254;80877;-53
2023/01/17 06:59:01;;;;;;;11.30;8.30;;;;;;;2.71;92.28;97844.89;107476;1258;79862;-52
2023/01/17 07:01:45;;;;;;;13.30;9.00;;;;;;;2.79;92.40;97843.34;107437;1254;97353;-54
2023/01/17 07:04:29;;;;;;;13.90;8.90;;;;;;;2.83;92.33;97852.86;107400;1254;87765;-54
2023/01/17 07:07:07;;;;;;;12.50;9.00;;;;;;;2.80;92.34;97855.41;107437;1254;95278;-56
2023/01/17 07:09:50;;;;;;;15.60;9.40;;;;;;;2.80;92.48;97859.30;107455;1254;80564;-54
2023/01/17 07:12:32;;;;;;;13.80;9.30;;;;;;;2.82;92.50;97862.95;107405;1255;80131;-55
2023/01/17 07:15:11;;;;;;;12.30;9.00;;;;;;;2.85;92.40;97862.47;107394;1254;97362;-53
2023/01/17 07:17:53;;;;;;;13.70;9.30;;;;;;;2.91;92.49;97859.85;107340;1254;88286;-54
2023/01/17 07:20:42;;;;;;;13.80;9.30;;;;;;;2.96;92.18;97854.81;107351;1254;94153;-54
2023/01/17 07:23:22;;;;;;;12.40;8.40;;;;;;;2.99;92.23;97847.80;107331;1254;82017;-53
2023/01/17 07:26:01;;;;;;;13.40;8.60;;;;;;;3.15;92.46;97851.83;107379;1254;81953;-52
2023/01/17 07:28:44;;;;;;;14.20;8.80;;;;;;;3.35;92.42;97849.41;107354;1254;99315;-53
2023/01/17 07:31:32;;;;;;;13.10;8.50;;;;;;;3.86;92.49;97853.29;107348;1258;89241;-53
2023/01/17 07:34:10;;;;;;;13.10;8.40;;;;;;;4.65;92.33;97845.32;107365;1254;95869;-53
2023/01/17 07:36:49;;;;;;;10.30;7.90;;;;;;;5.76;91.51;97842.55;107373;1254;79940;-54
2023/01/17 07:39:36;;;;;;;11.30;8.00;;;;;;;6.55;90.22;97836.44;107435;1254;80237;-54
2023/01/17 07:42:22;;;;;;;12.60;8.60;;;;;;;6.89;89.52;97837.90;107489;1254;100102;-56
2023/01/17 07:45:02;;;;;;;11.00;7.90;;;;;;;7.88;89.12;97831.98;107488;1254;88640;-53
2023/01/17 07:47:49;;;;;;;9.80;7.90;;;;;;;8.44;87.85;97823.39;107425;1257;95056;-52
2023/01/17 07:50:25;;;;;;;;;;;;;;;8.49;84.89;97822.46;107480;1254;78554;-56
2023/01/17 07:53:03;;;;;;;10.90;7.70;;;;;;;8.40;85.31;97825.34;107480;1258;81471;-56
2023/01/17 07:55:43;;;;;;;9.60;6.90;;;;;;;9.16;85.33;97831.15;107428;1254;99229;-53
2023/01/17 07:58:23;;;;;;;9.50;6.80;;;;;;;9.74;84.37;97837.29;107395;1254;86032;-53
2023/01/17 08:01:07;;;;;;;8.50;6.60;;;;;;;9.84;83.36;97836.41;107372;1254;94551;-52
2023/01/17 08:03:53;;;;;;;10.60;7.10;;;;;;;9.36;81.70;97844.38;107376;1254;80444;-52
2023/01/17 08:06:39;;;;;;;9.90;6.90;;;;;;;9.50;80.91;97856.09;107388;1254;83235;-53
2023/01/17 08:09:24;;;;;;;8.80;7.10;;;;;;;9.55;80.05;97867.93;107334;1254;99532;-53
2023/01/17 08:12:04;;;;;;;10.00;7.10;;;;;;;9.88;79.26;97879.77;107406;1254;89246;-56
2023/01/17 08:14:48;;;;;;;6.80;6.00;;;;;;;9.60;78.58;97883.30;107389;1254;94114;-54
2023/01/17 08:17:28;;;;;;;8.80;6.90;;;;;;;9.14;78.74;97883.96;107355;1254;80361;-55
2023/01/17 08:20:09;;;;;;;9.00;6.40;;;;;;;8.77;78.72;97886.38;107410;1254;80581;-53
2023/01/17 08:22:52;;;;;;;9.10;7.30;;;;;;;8.19;77.81;97882.75;107335;1254;99831;-53
2023/01/17 08:25:38;;;;;;;9.30;6.70;;;;;;;7.46;78.06;97884.63;107414;1254;86732;-54
2023/01/17 08:28:20;;;;;;;8.50;6.60;;;;;;;7.00;78.76;97889.86;107389;1254;94449;-54
2023/01/17 08:30:58;;;;;;;10.00;7.20;;;;;;;6.68;78.85;97891.98;107441;1254;80508;-56
2023/01/17 08:33:33;;;;;;;8.60;6.60;;;;;;;6.42;79.67;97890.92;107468;1254;82497;-56
2023/01/17 08:36:17;;;;;;;10.00;7.20;;;;;;;6.32;80.08;97883.98;107456;1254;98975;-54
2023/01/17 08:38:56;;;;;;;11.10;7.30;;;;;;;6.28;80.39;97884.83;107448;1254;89167;-54
2023/01/17 08:41:37;;;;;;;9.40;7.10;;;;;;;6.24;80.69;97883.10;107410;1254;94172;-53
2023/01/17 08:44:20;;;;;;;12.60;7.60;;;;;;;6.10;80.77;97882.18;107338;1254;78393;-52
2023/01/17 08:46:56;;;;;;;11.70;7.00;;;;;;;6.02;81.01;97882.27;107361;1258;82928;-54
2023/01/17 08:49:35;;;;;;;11.30;6.70;;;;;;;6.00;81.09;97876.47;107320;1254;100201;-54
2023/01/17 08:52:15;;;;;;;9.10;6.40;;;;;;;5.94;81.19;97874.38;107336;1254;87450;-55
2023/01/17 08:54:55;;;;;;;8.60;6.30;;;;;;;5.98;81.52;97868.95;107338;1254;95170;-57
2023/01/17 08:57:35;;;;;;;9.20;6.40;;;;;;;5.98;81.63;97864.02;107417;1254;77509;-57
2023/01/17 09:00:17;;;;;;;8.60;6.60;;;;;;;5.97;81.69;97856.45;107381;1254;82594;-63
2023/01/17 09:03:01;;;;;;;8.50;6.30;;;;;;;6.04;81.46;97860.14;107388;1258;98373;-55
2023/01/17 09:05:40;;;;;;;10.30;6.70;;;;;;;5.98;81.64;97860.45;107393;1254;88560;-55
2023/01/17 09:08:18;;;;;;;10.70;6.60;;;;;;;6.00;81.89;97858.09;107384;1254;93531;-56
2023/01/17 09:10:57;;;;;;;8.90;6.70;;;;;;;5.96;82.15;97859.73;107375;1254;79440;-53
2023/01/17 09:13:38;;;;;;;10.70;7.30;;;;;;;5.93;82.08;97856.84;107381;1254;82815;-54
2023/01/17 09:16:13;;;;;;;11.40;7.10;;;;;;;5.90;82.39;97858.59;107394;1254;99618;-56
2023/01/17 09:19:01;;;;;;;10.30;7.40;;;;;;;5.90;82.03;97855.30;107467;1254;88435;-56
2023/01/17 09:21:44;;;;;;;8.60;6.40;;;;;;;5.89;82.14;97861.73;107433;1258;94656;-50
2023/01/17 09:24:24;;;;;;;9.60;6.20;;;;;;;5.90;81.87;97862.67;107410;1254;78881;-52
2023/01/17 09:27:06;;;;;;;8.70;6.40;;;;;;;5.89;81.99;97865.86;107397;1254;81755;-52
2023/01/17 09:29:48;;;;;;;8.70;6.70;;;;;;;5.83;82.23;97870.42;107393;1256;98612;-52
2023/01/17 09:32:30;;;;;;;10.10;7.10;;;;;;;5.79;82.25;97867.45;107331;1258;91088;-52
2023/01/17 09:35:10;;;;;;;9.10;6.70;;;;;;;5.78;82.24;97873.14;107315;1255;95475;-53
2023/01/17 09:37:56;;;;;;;9.10;6.90;;;;;;;5.73;82.32;97880.48;107330;1254;80098;-49
2023/01/17 09:40:36;;;;;;;10.10;6.90;;;;;;;5.72;82.40;97882.94;107443;1254;80407;-55
2023/01/17 09:43:31;;;;;;;9.60;6.60;;;;;;;5.63;82.62;97885.85;107399;1254;100147;-56
2023/01/17 09:46:21;;;;;;;10.10;6.90;;;;;;;5.56;82.62;97886.56;107342;1254;87472;-56
2023/01/17 09:49:03;;;;;;;10.50;6.80;;;;;;;5.55;82.71;97886.62;107368;1255;93305;-55
2023/01/17 09:51:46;;;;;;;10.00;6.90;;;;;;;5.60;82.81;97887.90;107294;1254;81002;-54
2023/01/17 09:54:34;;;;;;;9.00;6.50;;;;;;;5.55;82.72;97886.95;107324;1254;81734;-54
2023/01/17 09:57:28;;;;;;;10.00;6.70;;;;;;;5.51;82.81;97888.92;107353;1254;99676;-53
2023/01/17 10:00:16;;;;;;;8.90;6.50;;;;;;;5.49;82.83;97889.67;107405;1254;88134;-54
2023/01/17 10:03:27;;;;;;;10.30;6.20;;;;;;;5.51;82.93;97891.77;107433;1254;95560;-53
2023/01/17 10:06:25;;;;;;;10.30;7.00;;;;;;;5.50;82.59;97888.81;107373;1255;81074;-55
2023/01/17 10:09:31;;;;;;;9.40;6.80;;;;;;;5.49;82.57;97893.50;107358;1254;82077;-55
2023/01/17 10:12:22;;;;;;;8.60;6.50;;;;;;;5.54;82.69;97897.80;107409;1254;99520;-56
2023/01/17 10:15:27;;;;;;;10.00;7.50;;;;;;;5.53;83.18;97900.69;107453;1254;89403;-58
2023/01/17 10:18:24;;;;;;;9.60;6.60;;;;;;;5.52;82.74;97904.56;107427;1254;95995;-58
2023/01/17 10:21:13;;;;;;;10.00;6.50;;;;;;;5.48;82.84;97910.41;107394;1254;78570;-53
2023/01/17 10:24:26;;;;;;;9.50;6.40;;;;;;;5.45;82.62;97907.63;107344;1255;81805;-53
2023/01/17 10:27:21;;;;;;;9.50;6.30;;;;;;;5.39;82.67;97905.13;107316;1254;98673;-55
2023/01/17 10:30:01;;;;;;;11.00;7.50;;;;;;;5.45;82.59;97910.04;107355;1254;88020;-54
2023/01/17 10:32:47;;;;;;;10.20;7.60;;;;;;;5.49;82.50;97911.69;107306;1254;94945;-54
2023/01/17 10:35:31;;;;;;;12.00;7.00;;;;;;;5.52;82.71;97914.24;107381;1254;80392;-52
2023/01/17 10:38:13;;;;;;;11.70;7.10;;;;;;;5.56;82.93;97911.65;107365;1254;82682;-52
2023/01/17 10:41:00;;;;;;;12.40;6.90;;;;;;;5.58;82.89;97912.50;107346;1254;98973;-54
2023/01/17 10:43:56;;;;;;;11.40;7.50;;;;;;;5.57;82.51;97918.53;107391;1254;87126;-55
2023/01/17 10:46:43;;;;;;;9.80;6.60;;;;;;;5.57;82.22;97918.31;107451;1254;94121;-56
2023/01/17 10:49:26;;;;;;;10.60;6.60;;;;;;;5.52;82.33;97915.31;107487;1254;79812;-56
2023/01/17 10:52:24;;;;;;;9.10;7.20;;;;;;;5.53;82.45;97915.76;107421;1255;82268;-53
2023/01/17 10:55:22;;;;;;;10.40;7.10;;;;;;;5.52;82.65;97911.29;107401;1254;99370;-55
2023/01/17 10:58:00;;;;;;;9.20;6.20;;;;;;;5.58;82.53;97908.30;107386;1254;88905;-55
2023/01/17 11:00:48;;;;;;;8.70;6.70;;;;;;;5.65;82.53;97910.89;107416;1255;94034;-54
2023/01/17 11:03:23;;;;;;;9.60;7.30;;;;;;;5.69;82.16;97912.95;107357;1255;78302;-54
2023/01/17 11:06:22;;;;;;;11.40;6.80;;;;;;;5.64;82.19;97911.52;107406;1255;81494;-54
2023/01/17 11:08:59;;;;;;;10.10;7.30;;;;;;;5.64;81.96;97914.81;107350;1254;97203;-55
2023/01/17 11:11:54;;;;;;;9.40;7.10;;;;;;;5.59;81.87;97912.29;107314;1256;88204;-54
2023/01/17 11:14:34;;;;;;;10.60;7.50;;;;;;;5.56;81.96;97916.23;107311;1255;94655;-54
2023/01/17 11:17:11;;;;;;;10.40;7.20;;;;;;;5.55;82.10;97917.43;107305;1255;80751;-54
2023/01/17 11:19:51;;;;;;;9.90;6.90;;;;;;;5.53;82.09;97916.79;107341;1258;80093;-54
2023/01/17 11:22:34;;;;;;;12.80;8.10;;;;;;;5.57;82.26;97919.60;107335;1254;99146;-53
2023/01/17 11:25:22;;;;;;;10.80;7.30;;;;;;;5.56;82.31;97914.38;107356;1254;87949;-55
2023/01/17 11:28:07;;;;;;;11.20;7.10;;;;;;;5.58;82.11;97911.64;107306;1256;93741;-54
2023/01/17 11:30:54;;;;;;;10.70;7.00;;;;;;;5.59;81.98;97913.66;107360;1255;81290;-56
2023/01/17 11:33:47;;;;;;;9.30;6.60;;;;;;;5.62;81.97;97915.13;107416;1254;80069;-54
2023/01/17 11:36:28;;;;;;;11.60;7.20;;;;;;;5.62;82.26;97919.02;107382;1255;99651;-52
2023/01/17 11:39:26;;;;;;;13.20;7.20;;;;;;;5.66;82.20;97919.78;107393;1258;89690;-53
2023/01/17 11:42:30;;;;;;;10.10;6.90;;;;;;;5.72;82.05;97927.10;107376;1258;95084;-56
2023/01/17 11:45:35;;;;;;;12.20;6.90;;;;;;;5.74;82.09;97930.70;107425;1254;79863;-55
2023/01/17 11:48:17;;;;;;;11.70;6.70;;;;;;;5.70;82.31;97925.59;107383;1256;82848;-54
2023/01/17 11:51:04;;;;;;;12.40;7.80;;;;;;;5.73;82.13;97926.35;107395;1256;99752;-55
2023/01/17 11:53:49;;;;;;;11.80;7.80;;;;;;;5.73;81.62;97923.50;107376;1254;88902;-54
2023/01/17 11:56:33;;;;;;;12.40;8.30;;;;;;;5.73;81.70;97927.67;107433;1255;95246;-55
2023/01/17 11:59:41;;;;;;;11.20;7.50;;;;;;;5.71;81.59;97929.95;107456;1254;80372;-54
2023/01/17 12:03:14;;;;;;;8.80;7.30;;;;;;;5.67;81.57;97932.05;107336;1254;83145;-54
2023/01/17 12:06:07;;;;;;;11.00;6.50;;;;;;;5.70;81.43;97934.65;107402;1254;98553;-54
2023/01/17 12:09:08;;;;;;;11.10;7.50;;;;;;;5.65;81.45;97938.98;107365;1254;87596;-53
2023/01/17 12:15:04;;;;;;;13.40;8.10;;;;;;;5.73;81.39;97940.73;107331;1258;77687;-53
2023/01/17 12:18:05;;;;;;;11.20;7.40;;;;;;;5.72;81.47;97940.70;107407;1255;82525;-53
2023/01/17 12:20:58;;;;;;;14.30;8.70;;;;;;;5.65;81.47;97934.80;107322;1255;99787;-55
2023/01/17 12:23:53;;;;;;;;;;;;;;;5.64;81.52;97932.36;107374;1254;88359;-55
2023/01/17 12:26:48;;;;;;;11.20;8.00;;;;;;;5.57;81.35;97933.86;107356;1255;95620;-56
2023/01/17 12:29:57;;;;;;;12.10;8.50;;;;;;;5.54;81.48;97931.98;107451;1255;80167;-56
2023/01/17 12:33:09;;;;;;;13.50;7.60;;;;;;;5.58;81.40;97928.73;107396;1255;81760;-54
2023/01/17 12:35:49;;;;;;;11.10;7.60;;;;;;;5.52;81.31;97926.06;107405;1254;99534;-53
2023/01/17 12:38:33;;;;;;;11.10;8.30;;;;;;;5.53;81.60;97928.09;107360;1255;88927;-53
2023/01/17 12:41:22;;;;;;;12.10;8.60;;;;;;;5.57;81.53;97929.83;107298;1255;94589;-56
2023/01/17 12:44:01;;;;;;;13.80;8.90;;;;;;;5.48;81.07;97930.55;107364;1254;81784;-55
2023/01/17 12:46:51;;;;;;;11.80;8.00;;;;;;;5.50;81.51;97930.33;107347;1255;80698;-54
2023/01/17 12:49:46;;;;;;;11.60;7.30;;;;;;;5.56;81.32;97932.38;107319;1254;98623;-53
2023/01/17 12:52:37;;;;;;;12.80;8.40;;;;;;;5.60;81.52;97937.02;107329;1255;88046;-53
2023/01/17 12:55:24;;;;;;;14.80;9.20;;;;;;;5.65;81.66;97940.27;107386;1258;93997;-57
2023/01/17 12:58:11;;;;;;;14.80;8.70;;;;;;;5.69;81.60;97941.59;107452;1254;77689;-56
2023/01/17 13:00:59;;;;;;;12.90;9.40;;;;;;;5.74;81.74;97943.61;107372;1254;80400;-51
2023/01/17 13:03:53;;;;;;;14.50;9.70;;;;;;;5.68;81.46;97941.34;107373;1255;99246;-52
2023/01/17 13:06:41;;;;;;;16.20;9.30;;;;;;;5.65;81.43;97941.55;107379;1255;89039;-51
2023/01/17 13:09:30;;;;;;;13.90;9.70;;;;;;;5.64;81.50;97940.29;107370;1255;92466;-52
2023/01/17 13:12:13;;;;;;;12.50;8.80;;;;;;;5.60;81.45;97941.08;107403;1255;80644;-56
2023/01/17 13:15:00;;;;;;;14.10;9.10;;;;;;;5.57;81.52;97947.45;107435;1255;83441;-54
2023/01/17 13:17:46;;;;;;;14.50;8.80;;;;;;;5.54;81.65;97943.08;107322;1258;100192;-55
2023/01/17 13:20:33;;;;;;;13.90;9.00;;;;;;;5.48;81.67;97941.45;107375;1255;87207;-56
2023/01/17 13:23:33;;;;;;;14.50;9.70;;;;;;;5.48;81.53;97940.44;107393;1258;95281;-56
2023/01/17 13:26:23;;;;;;;14.10;9.50;;;;;;;5.42;81.47;97937.02;107389;1255;77906;-52
2023/01/17 13:29:10;;;;;;;13.30;9.20;;;;;;;5.38;81.62;97934.23;107441;1254;81980;-52
2023/01/17 13:32:01;;;;;;;14.50;9.40;;;;;;;5.34;81.55;97934.98;107314;1254;97361;-54
2023/01/17 13:35:23;;;;;;;15.10;10.20;;;;;;;5.29;81.65;97934.25;107313;1255;87788;-55
2023/01/17 13:38:26;;;;;;;15.90;9.30;;;;;;;5.25;81.71;97940.34;107125;1254;95692;-55
2023/01/17 13:41:39;;;;;;;15.40;9.80;;;;;;;5.22;81.67;97943.15;107374;1255;81340;-53
2023/01/17 13:44:25;;;;;;;14.00;8.90;;;;;;;5.18;81.72;97954.88;107342;1258;80252;-54
2023/01/17 13:47:07;;;;;;;13.30;9.40;;;;;;;5.17;81.86;97948.33;107354;1255;99464;-54
2023/01/17 13:49:55;;;;;;;13.80;9.30;;;;;;;5.09;81.95;97948.38;107389;1255;89691;-54
2023/01/17 13:52:47;;;;;;;15.10;8.90;;;;;;;4.99;81.77;97941.72;107366;1255;95787;-52
2023/01/17 13:55:52;;;;;;;13.90;9.20;;;;;;;4.88;81.91;97947.21;107376;1255;79677;-55
2023/01/17 13:59:05;;;;;;;14.70;9.40;;;;;;;4.75;81.90;97946.23;107405;1258;80519;-55
2023/01/17 14:02:00;;;;;;;12.70;8.50;;;;;;;4.69;81.93;97951.16;107373;1255;98454;-55
2023/01/17 14:05:09;;;;;;;;;;;;;;;4.61;82.08;97952.59;107444;1255;88760;-54
2023/01/17 14:07:58;;;;;;;14.60;8.60;;;;;;;4.57;82.30;97962.10;107378;1254;95172;-55
2023/01/17 14:10:40;;;;;;;14.50;9.10;;;;;;;4.55;82.15;97963.47;107376;1258;77654;-51
2023/01/17 14:13:40;;;;;;;13.50;9.00;;;;;;;4.47;82.35;97967.15;107384;1258;83420;-52
2023/01/17 14:16:36;;;;;;;12.60;9.10;;;;;;;4.40;82.53;97971.44;107402;1254;98858;-55
2023/01/17 14:19:39;;;;;;;14.70;9.20;;;;;;;4.34;82.55;97967.92;107339;1256;87054;-55